Time;durP1;ratioP1;P1;durP2;ratioP2;P2;SDS_P1;SDS_P2;PMS_P1;PMS_P2;Temp;Humidity;BMP_temperature;BMP_pressure;BME280_temperature;BME280_humidity;BME280_pressure;Samples;Min_cycle;Max_cycle;Signal;HPM_P1;HPM_P2
2023/07/10 00:00:59;;;;;;;;;;;19.50;99.90;;;;;;5012453;28;20050;-71
2023/07/10 00:03:25;;;;;;;20.25;13.85;;;19.40;99.90;;;;;;5012143;28;19927;-71
2023/07/10 00:05:51;;;;;;;18.98;13.20;;;19.50;99.90;;;;;;5013054;28;20133;-71
2023/07/10 00:08:16;;;;;;;19.08;13.50;;;19.50;99.90;;;;;;5012996;28;20046;-71
2023/07/10 00:10:43;;;;;;;14.27;12.13;;;19.50;99.90;;;;;;5012906;28;20532;-72
2023/07/10 00:13:11;;;;;;;19.52;14.40;;;19.40;99.90;;;;;;5012811;28;20050;-73
2023/07/10 00:15:38;;;;;;;19.33;12.93;;;19.40;99.90;;;;;;5012551;28;20107;-73
2023/07/10 00:18:16;;;;;;;12.45;10.65;;;19.40;99.90;;;;;;5012650;28;20114;-71
2023/07/10 00:20:42;;;;;;;19.17;12.82;;;19.40;99.90;;;;;;5012462;28;20042;-71
2023/07/10 00:23:08;;;;;;;15.45;13.10;;;19.50;99.90;;;;;;5012418;28;20050;-72
2023/07/10 00:25:34;;;;;;;16.42;13.52;;;19.50;99.90;;;;;;5012698;28;20041;-71
2023/07/10 00:28:00;;;;;;;23.42;14.55;;;19.50;99.90;;;;;;5011575;28;20513;-71
2023/07/10 00:30:26;;;;;;;17.13;13.48;;;19.50;99.90;;;;;;5011296;28;20053;-70
2023/07/10 00:32:53;;;;;;;21.52;14.57;;;19.40;99.90;;;;;;5012559;28;20042;-71
2023/07/10 00:35:27;;;;;;;23.10;14.95;;;19.40;99.90;;;;;;5012548;28;20045;-73
2023/07/10 00:38:02;;;;;;;16.63;14.88;;;19.50;99.90;;;;;;5012893;28;20122;-71
2023/07/10 00:40:31;;;;;;;15.52;13.80;;;19.40;99.90;;;;;;5012517;28;20054;-71
2023/07/10 00:43:36;;;;;;;17.25;14.02;;;19.40;99.90;;;;;;5012445;28;20042;-71
2023/07/10 00:46:24;;;;;;;20.98;13.30;;;19.40;99.90;;;;;;4997689;28;20486;-71
2023/07/10 00:49:05;;;;;;;23.48;16.33;;;19.50;99.90;;;;;;5013046;28;20121;-71
2023/07/10 00:51:39;;;;;;;19.98;13.60;;;19.50;99.90;;;;;;5012686;28;20053;-71
2023/07/10 00:54:24;;;;;;;19.17;14.00;;;19.50;99.90;;;;;;5012290;28;20049;-73
2023/07/10 00:56:50;;;;;;;18.38;14.25;;;19.50;99.90;;;;;;5011442;28;20129;-71
2023/07/10 00:59:25;;;;;;;15.98;11.75;;;19.50;99.90;;;;;;5012276;28;20439;-71
2023/07/10 01:02:12;;;;;;;18.10;15.13;;;19.50;99.90;;;;;;5012125;28;20057;-71
2023/07/10 01:04:41;;;;;;;18.40;14.27;;;19.50;99.90;;;;;;5012250;28;20133;-71
2023/07/10 01:07:16;;;;;;;21.60;14.73;;;19.40;99.90;;;;;;5012126;28;20042;-71
2023/07/10 01:09:53;;;;;;;18.88;13.90;;;19.50;99.90;;;;;;4995159;28;20086;-72
2023/07/10 01:12:20;;;;;;;16.92;12.32;;;19.50;99.90;;;;;;5011704;28;20049;-71
2023/07/10 01:14:46;;;;;;;23.30;15.15;;;19.50;99.90;;;;;;5015722;28;20046;-72
2023/07/10 01:17:11;;;;;;;22.42;15.40;;;19.50;99.90;;;;;;5016434;28;20134;-71
2023/07/10 01:19:38;;;;;;;19.70;16.00;;;19.50;99.90;;;;;;5015525;28;20049;-71
2023/07/10 01:22:09;;;;;;;17.20;14.77;;;19.50;99.90;;;;;;5015428;28;20053;-73
2023/07/10 01:24:36;;;;;;;25.08;15.73;;;19.50;99.90;;;;;;5015509;28;20045;-71
2023/07/10 01:27:04;;;;;;;23.70;16.65;;;19.60;99.90;;;;;;5015591;28;20049;-72
2023/07/10 01:29:41;;;;;;;22.27;16.80;;;19.50;99.90;;;;;;5015236;28;20491;-72
2023/07/10 01:32:11;;;;;;;24.20;17.05;;;19.50;99.90;;;;;;5016294;28;20117;-73
2023/07/10 01:34:53;;;;;;;24.40;18.35;;;19.50;99.90;;;;;;5015736;28;20042;-71
2023/07/10 01:37:19;;;;;;;24.45;17.02;;;19.50;99.90;;;;;;4997991;28;20077;-71
2023/07/10 01:39:48;;;;;;;28.90;19.42;;;19.40;99.90;;;;;;4997811;28;20074;-71
2023/07/10 01:42:14;;;;;;;31.08;23.27;;;19.40;99.90;;;;;;5015126;28;20045;-73
2023/07/10 01:44:44;;;;;;;34.30;23.60;;;19.40;99.90;;;;;;5015183;28;20052;-71
2023/07/10 01:47:12;;;;;;;35.13;24.52;;;19.30;99.90;;;;;;5015094;28;20042;-72
2023/07/10 01:49:56;;;;;;;32.33;22.70;;;19.20;99.90;;;;;;5013923;28;20504;-71
2023/07/10 01:52:22;;;;;;;36.92;25.65;;;19.20;99.90;;;;;;5015607;28;20041;-72
2023/07/10 01:54:49;;;;;;;35.30;24.38;;;19.20;99.90;;;;;;5015084;28;20088;-72
2023/07/10 01:57:16;;;;;;;31.88;23.85;;;19.30;99.90;;;;;;5014846;28;20042;-71
2023/07/10 01:59:42;;;;;;;27.95;20.65;;;19.30;99.90;;;;;;4997811;28;20046;-71
2023/07/10 02:02:08;;;;;;;32.08;19.38;;;19.10;99.90;;;;;;5014955;28;20335;-72
2023/07/10 02:04:34;;;;;;;30.13;21.40;;;19.20;99.90;;;;;;5014734;28;20124;-72
2023/07/10 02:07:00;;;;;;;28.90;21.85;;;19.10;99.90;;;;;;5015279;28;20069;-71
2023/07/10 02:09:27;;;;;;;32.92;23.25;;;19.10;99.90;;;;;;5014712;28;20041;-73
2023/07/10 02:11:54;;;;;;;32.42;20.23;;;19.20;99.90;;;;;;4997238;28;20057;-71
2023/07/10 02:14:20;;;;;;;30.23;21.60;;;19.20;99.90;;;;;;5014467;28;20045;-71
2023/07/10 02:16:45;;;;;;;29.38;21.23;;;19.20;99.90;;;;;;5014468;28;20180;-72
2023/07/10 02:19:11;;;;;;;21.40;17.20;;;19.20;99.90;;;;;;5014328;28;20421;-71
2023/07/10 02:21:38;;;;;;;25.67;19.98;;;19.20;99.90;;;;;;5013129;28;20621;-73
2023/07/10 02:24:04;;;;;;;26.60;21.13;;;19.20;99.90;;;;;;5013392;28;20049;-72
2023/07/10 02:26:30;;;;;;;32.28;23.35;;;19.20;99.90;;;;;;5014638;28;20050;-73
2023/07/10 02:28:57;;;;;;;28.40;21.40;;;19.20;99.90;;;;;;5014180;28;20046;-71
2023/07/10 02:31:24;;;;;;;27.75;21.05;;;19.10;99.90;;;;;;5014092;28;20077;-71
2023/07/10 02:33:49;;;;;;;21.17;16.42;;;19.10;99.90;;;;;;4997238;28;20053;-71
2023/07/10 02:36:15;;;;;;;27.75;20.48;;;19.20;99.90;;;;;;5014607;28;20037;-71
2023/07/10 02:38:41;;;;;;;21.83;18.48;;;19.10;99.90;;;;;;4996947;28;20067;-71
2023/07/10 02:41:07;;;;;;;25.80;18.00;;;19.10;99.90;;;;;;5013925;28;20470;-72
2023/07/10 02:43:33;;;;;;;29.33;20.17;;;19.10;99.90;;;;;;5013958;28;20048;-71
2023/07/10 02:45:59;;;;;;;33.88;22.70;;;19.10;99.90;;;;;;5013931;28;20129;-71
2023/07/10 02:48:24;;;;;;;28.88;19.55;;;19.10;99.90;;;;;;5014189;28;20053;-71
2023/07/10 02:50:50;;;;;;;33.45;23.60;;;19.10;99.90;;;;;;5013839;28;20147;-71
2023/07/10 02:53:16;;;;;;;25.67;18.85;;;19.10;99.90;;;;;;5013545;28;20601;-71
2023/07/10 02:55:42;;;;;;;20.00;14.35;;;19.10;99.90;;;;;;4996236;28;20120;-71
2023/07/10 02:58:08;;;;;;;21.55;16.77;;;19.10;99.90;;;;;;5013654;28;20091;-71
2023/07/10 03:00:34;;;;;;;21.38;16.55;;;19.10;99.90;;;;;;5013288;28;20437;-71
2023/07/10 03:03:00;;;;;;;21.55;17.10;;;20.40;99.90;;;;;;5013168;28;20060;-70
2023/07/10 03:05:26;;;;;;;23.48;18.55;;;19.10;99.90;;;;;;5013554;28;20045;-72
2023/07/10 03:07:52;;;;;;;24.15;20.13;;;19.10;99.90;;;;;;4980042;28;20085;-71
2023/07/10 03:10:19;;;;;;;27.50;20.77;;;19.10;99.90;;;;;;5013536;28;20112;-71
2023/07/10 03:12:45;;;;;;;21.58;17.00;;;19.10;99.90;;;;;;5013322;28;20520;-71
2023/07/10 03:15:11;;;;;;;21.23;15.65;;;19.10;99.90;;;;;;5013732;28;20065;-71
2023/07/10 03:17:37;;;;;;;24.15;17.77;;;19.10;99.90;;;;;;5013479;28;20038;-72
2023/07/10 03:20:03;;;;;;;25.63;19.17;;;19.10;99.90;;;;;;5013875;28;20128;-71
2023/07/10 03:22:29;;;;;;;16.08;14.13;;;19.10;99.90;;;;;;4997942;28;20443;-71
2023/07/10 03:24:55;;;;;;;21.63;16.75;;;19.10;99.90;;;;;;5015473;28;20052;-71
2023/07/10 03:27:22;;;;;;;21.50;16.75;;;19.10;99.90;;;;;;5015047;28;20086;-71
2023/07/10 03:29:48;;;;;;;17.08;14.75;;;19.10;99.90;;;;;;5014535;28;20150;-71
2023/07/10 03:32:13;;;;;;;22.00;16.98;;;19.10;99.90;;;;;;5013276;28;20530;-72
2023/07/10 03:34:39;;;;;;;17.83;13.93;;;19.00;99.90;;;;;;5013231;28;20127;-70
2023/07/10 03:37:05;;;;;;;20.70;15.68;;;19.10;99.90;;;;;;5012706;28;20046;-71
2023/07/10 03:39:31;;;;;;;22.13;15.30;;;19.00;99.90;;;;;;5012699;28;20057;-71
2023/07/10 03:41:57;;;;;;;18.15;15.70;;;19.00;99.90;;;;;;4995535;28;20128;-71
2023/07/10 03:44:23;;;;;;;21.77;16.48;;;19.00;99.90;;;;;;5013470;28;20092;-71
2023/07/10 03:46:48;;;;;;;21.10;17.20;;;18.90;99.90;;;;;;5013306;28;20060;-71
2023/07/10 03:49:14;;;;;;;16.70;14.50;;;18.90;99.90;;;;;;5013661;28;20078;-70
2023/07/10 03:51:40;;;;;;;23.73;19.30;;;18.90;99.90;;;;;;4995306;28;20100;-71
2023/07/10 03:54:07;;;;;;;20.45;16.48;;;18.90;99.90;;;;;;5011717;28;20049;-70
2023/07/10 03:56:34;;;;;;;24.23;17.52;;;19.00;99.90;;;;;;5013088;28;20052;-70
2023/07/10 03:59:00;;;;;;;17.65;15.43;;;19.00;99.90;;;;;;5012882;28;20041;-71
2023/07/10 04:01:26;;;;;;;18.90;16.90;;;19.00;99.90;;;;;;5011271;28;20046;-71
2023/07/10 04:03:51;;;;;;;22.38;18.05;;;19.00;99.90;;;;;;5013306;28;20088;-71
2023/07/10 04:06:17;;;;;;;28.17;20.20;;;19.00;99.90;;;;;;4995235;28;20088;-70
2023/07/10 04:08:44;;;;;;;22.02;17.20;;;19.00;99.90;;;;;;5012716;28;20081;-72
2023/07/10 04:11:10;;;;;;;17.95;15.48;;;19.10;99.90;;;;;;5013044;28;20053;-71
2023/07/10 04:13:37;;;;;;;19.27;14.00;;;19.10;99.90;;;;;;5013227;28;20069;-71
2023/07/10 04:16:10;;;;;;;15.13;12.90;;;19.10;99.90;;;;;;5012586;28;20042;-72
2023/07/10 04:18:36;;;;;;;;;;;19.10;99.90;;;;;;5013071;28;20049;-71
2023/07/10 04:21:22;;;;;;;15.10;13.10;;;19.10;99.90;;;;;;5012545;28;19922;-70
2023/07/10 04:23:49;;;;;;;18.30;15.82;;;19.10;99.90;;;;;;5012354;28;20427;-71
2023/07/10 04:26:23;;;;;;;19.73;15.02;;;19.20;99.90;;;;;;5012951;28;20042;-71
2023/07/10 04:28:51;;;;;;;15.02;13.52;;;19.20;99.90;;;;;;5012868;28;20176;-70
2023/07/10 04:31:17;;;;;;;20.50;17.45;;;19.20;99.90;;;;;;5012425;28;20081;-71
2023/07/10 04:33:44;;;;;;;19.02;13.55;;;19.20;99.90;;;;;;5012567;28;20196;-71
2023/07/10 04:36:10;;;;;;;16.95;14.98;;;19.20;99.90;;;;;;5012149;28;20423;-71
2023/07/10 04:38:36;;;;;;;22.30;15.68;;;19.30;99.90;;;;;;4995389;28;20068;-73
2023/07/10 04:41:05;;;;;;;23.35;17.63;;;19.30;99.90;;;;;;4995217;28;20479;-72
2023/07/10 04:43:33;;;;;;;17.10;13.07;;;19.30;99.90;;;;;;5012405;28;20050;-71
2023/07/10 04:46:01;;;;;;;17.58;13.30;;;19.40;99.90;;;;;;4994331;28;20085;-72
2023/07/10 04:48:27;;;;;;;19.95;13.50;;;19.40;99.90;;;;;;4996565;28;20056;-71
2023/07/10 04:50:54;;;;;;;18.92;13.77;;;19.40;99.90;;;;;;5016003;28;20124;-71
2023/07/10 04:53:21;;;;;;;17.17;15.02;;;19.40;99.90;;;;;;5016262;28;20077;-70
2023/07/10 04:55:49;;;;;;;15.32;12.55;;;19.40;99.90;;;;;;5014899;28;20082;-70
2023/07/10 04:58:15;;;;;;;9.88;8.88;;;19.40;99.90;;;;;;5015983;28;20371;-70
2023/07/10 05:00:41;;;;;;;16.77;11.85;;;19.40;99.90;;;;;;5015787;28;20068;-71
2023/07/10 05:03:08;;;;;;;12.18;10.65;;;19.50;99.90;;;;;;5015795;28;20185;-71
2023/07/10 05:05:34;;;;;;;12.30;9.25;;;19.50;99.90;;;;;;4998692;28;20111;-71
2023/07/10 05:08:00;;;;;;;13.18;9.80;;;19.60;99.90;;;;;;5015320;28;20088;-71
2023/07/10 05:10:27;;;;;;;13.98;8.27;;;19.60;99.90;;;;;;5015659;28;20060;-73
2023/07/10 05:12:53;;;;;;;14.25;10.50;;;19.50;99.90;;;;;;5015586;28;20053;-70
2023/07/10 05:15:20;;;;;;;10.02;9.02;;;19.50;99.90;;;;;;5015478;28;20129;-72
2023/07/10 05:17:46;;;;;;;10.80;8.13;;;19.50;99.90;;;;;;5016056;28;20140;-71
2023/07/10 05:20:12;;;;;;;9.85;8.80;;;19.40;99.90;;;;;;5015378;28;20118;-73
2023/07/10 05:22:38;;;;;;;8.52;7.72;;;19.40;99.90;;;;;;4981843;28;20070;-70
2023/07/10 05:25:04;;;;;;;7.75;6.47;;;19.40;99.90;;;;;;5015751;28;20065;-72
2023/07/10 05:27:30;;;;;;;8.93;5.85;;;19.50;99.90;;;;;;5014175;28;20403;-71
2023/07/10 05:29:56;;;;;;;8.18;6.25;;;19.50;99.90;;;;;;5015320;28;20081;-71
2023/07/10 05:32:21;;;;;;;7.20;6.20;;;19.50;99.90;;;;;;5015893;28;20046;-72
2023/07/10 05:34:47;;;;;;;7.93;6.63;;;19.60;99.90;;;;;;5015274;28;20049;-70
2023/07/10 05:37:13;;;;;;;8.05;5.90;;;;;;;;;;5015354;28;20491;-71
2023/07/10 05:39:39;;;;;;;6.55;5.93;;;19.60;99.90;;;;;;4998233;28;20431;-71
2023/07/10 05:42:05;;;;;;;11.15;5.85;;;;;;;;;;5015143;28;20046;-71
2023/07/10 05:44:31;;;;;;;6.75;5.50;;;;;;;;;;5015277;28;20054;-71
2023/07/10 05:46:57;;;;;;;9.18;6.60;;;;;;;;;;5014998;28;20042;-71
2023/07/10 05:49:26;;;;;;;7.95;6.15;;;;;;;;;;4997805;28;20046;-71
2023/07/10 05:51:53;;;;;;;7.97;5.70;;;;;;;;;;5014852;28;20049;-70
2023/07/10 05:54:19;;;;;;;9.07;5.88;;;20.00;99.90;;;;;;5014579;28;20128;-73
2023/07/10 05:56:47;;;;;;;5.40;4.85;;;20.00;99.90;;;;;;5014750;28;20042;-70
2023/07/10 05:59:14;;;;;;;7.47;5.35;;;20.00;99.90;;;;;;4997437;28;20480;-72
2023/07/10 06:01:40;;;;;;;6.13;5.20;;;20.10;99.90;;;;;;5015040;28;20074;-70
2023/07/10 06:04:06;;;;;;;5.32;4.35;;;20.10;99.90;;;;;;5014768;28;20065;-70
2023/07/10 06:06:32;;;;;;;5.15;4.53;;;20.20;99.90;;;;;;5014718;28;20045;-70
2023/07/10 06:08:58;;;;;;;7.75;4.82;;;20.20;99.90;;;;;;5014881;28;20181;-71
2023/07/10 06:11:23;;;;;;;7.28;4.57;;;20.20;99.90;;;;;;4997050;28;20116;-71
2023/07/10 06:13:49;;;;;;;5.63;4.07;;;20.30;99.90;;;;;;5014548;28;20064;-70
2023/07/10 06:16:15;;;;;;;6.82;4.22;;;20.30;99.90;;;;;;5014235;28;20046;-70
2023/07/10 06:18:41;;;;;;;5.28;4.07;;;20.40;99.90;;;;;;5014359;28;20050;-70
2023/07/10 06:21:08;;;;;;;5.55;4.10;;;20.40;99.90;;;;;;4997328;28;20129;-71
2023/07/10 06:23:34;;;;;;;5.55;3.92;;;20.50;99.90;;;;;;5014508;28;20046;-71
2023/07/10 06:26:01;;;;;;;6.65;3.70;;;20.50;99.90;;;;;;4996865;28;20042;-70
2023/07/10 06:28:30;;;;;;;5.35;3.88;;;20.70;99.90;;;;;;5014520;28;20459;-71
2023/07/10 06:30:59;;;;;;;7.35;3.85;;;20.90;99.90;;;;;;5014795;28;20416;-70
2023/07/10 06:33:26;;;;;;;5.70;4.13;;;21.00;99.90;;;;;;5014598;28;20112;-73
2023/07/10 06:35:52;;;;;;;5.65;3.50;;;21.40;99.90;;;;;;5014074;28;20048;-71
2023/07/10 06:38:18;;;;;;;6.15;3.50;;;;;;;;;;5014112;28;20042;-70
2023/07/10 06:40:44;;;;;;;6.50;3.72;;;;;;;;;;5014109;28;20061;-71
2023/07/10 06:43:10;;;;;;;5.03;3.70;;;;;;;;;;5014376;28;20042;-72
2023/07/10 06:45:36;;;;;;;6.75;3.80;;;;;;;;;;5014205;28;20050;-72
2023/07/10 06:48:02;;;;;;;5.50;3.58;;;23.30;99.90;;;;;;5014182;28;20050;-72
2023/07/10 06:50:28;;;;;;;6.68;3.85;;;23.30;99.90;;;;;;4996635;28;20557;-71
2023/07/10 06:52:54;;;;;;;6.35;3.72;;;22.70;99.90;;;;;;5013921;28;20041;-70
2023/07/10 06:55:19;;;;;;;5.72;3.88;;;22.30;99.90;;;;;;5014073;28;20486;-71
2023/07/10 06:57:45;;;;;;;4.55;3.58;;;22.20;99.90;;;;;;4997112;28;20050;-70
2023/07/10 07:00:13;;;;;;;5.43;3.40;;;22.20;99.90;;;;;;5014120;28;20112;-71
2023/07/10 07:02:39;;;;;;;5.95;3.75;;;22.90;99.90;;;;;;4995811;28;20081;-73
2023/07/10 07:05:07;;;;;;;7.18;4.00;;;23.90;99.90;;;;;;5013793;28;20073;-74
2023/07/10 07:07:34;;;;;;;11.80;4.40;;;24.90;99.90;;;;;;5013997;28;20581;-74
2023/07/10 07:10:00;;;;;;;9.02;4.05;;;25.50;99.90;;;;;;5013197;28;20506;-73
2023/07/10 07:12:26;;;;;;;6.05;3.60;;;26.20;99.90;;;;;;5013680;28;20045;-74
2023/07/10 07:14:52;;;;;;;5.65;3.47;;;26.70;99.90;;;;;;4996903;28;20096;-74
2023/07/10 07:17:18;;;;;;;2.85;2.40;;;27.00;99.90;;;;;;5013955;28;20553;-74
2023/07/10 07:19:46;;;;;;;4.20;2.60;;;27.50;99.90;;;;;;5013826;28;20107;-73
2023/07/10 07:22:15;;;;;;;4.97;2.60;;;27.90;99.90;;;;;;5012660;28;20132;-74
2023/07/10 07:24:41;;;;;;;5.25;2.63;;;28.10;99.90;;;;;;5013596;28;20466;-74
2023/07/10 07:27:07;;;;;;;3.70;2.25;;;28.50;99.90;;;;;;4996583;28;20093;-75
2023/07/10 07:29:33;;;;;;;4.90;2.45;;;28.90;99.90;;;;;;4995373;28;20458;-74
2023/07/10 07:31:59;;;;;;;5.82;2.83;;;29.10;99.90;;;;;;5012942;28;20046;-74
2023/07/10 07:34:25;;;;;;;3.45;2.50;;;29.50;99.90;;;;;;5011720;28;20443;-74
2023/07/10 07:36:51;;;;;;;3.58;2.13;;;29.30;99.90;;;;;;5011730;28;20559;-73
2023/07/10 07:39:20;;;;;;;8.13;3.13;;;29.50;97.90;;;;;;5013169;28;20078;-74
2023/07/10 07:41:46;;;;;;;6.10;2.58;;;29.30;98.20;;;;;;5012885;28;20050;-74
2023/07/10 07:44:12;;;;;;;4.97;2.45;;;29.40;99.10;;;;;;4979304;28;20065;-74
2023/07/10 07:46:38;;;;;;;3.85;2.70;;;29.90;98.30;;;;;;5012822;28;20473;-74
2023/07/10 07:49:04;;;;;;;6.82;2.90;;;29.70;98.20;;;;;;5012810;28;20042;-74
2023/07/10 07:51:29;;;;;;;4.03;2.20;;;30.20;97.70;;;;;;5012782;28;20049;-74
2023/07/10 07:54:05;;;;;;;4.18;2.38;;;30.10;97.30;;;;;;5011537;28;20133;-74
2023/07/10 07:56:31;;;;;;;4.60;2.40;;;30.10;92.70;;;;;;4979018;28;20044;-74
2023/07/10 07:58:56;;;;;;;3.50;1.98;;;30.80;96.90;;;;;;4995627;28;20052;-73
2023/07/10 08:01:22;;;;;;;5.38;2.95;;;31.00;96.30;;;;;;5012971;28;20045;-74
2023/07/10 08:03:48;;;;;;;4.93;2.22;;;31.10;95.90;;;;;;5013307;28;20053;-73
2023/07/10 08:06:13;;;;;;;2.83;1.70;;;31.50;95.80;;;;;;5012219;28;20498;-75
2023/07/10 08:08:39;;;;;;;3.92;2.33;;;31.70;95.20;;;;;;4995712;28;20103;-74
2023/07/10 08:11:06;;;;;;;5.05;2.17;;;31.90;94.70;;;;;;5012920;28;20073;-74
2023/07/10 08:13:32;;;;;;;3.63;2.55;;;31.50;93.80;;;;;;5012413;28;20053;-73
2023/07/10 08:15:57;;;;;;;9.32;3.85;;;31.60;94.30;;;;;;5010995;28;20042;-74
2023/07/10 08:18:24;;;;;;;5.10;3.13;;;31.90;94.20;;;;;;4995244;28;20050;-74
2023/07/10 08:20:50;;;;;;;4.40;2.78;;;31.30;93.80;;;;;;5012492;28;20050;-74
2023/07/10 08:23:15;;;;;;;6.80;2.95;;;31.00;93.80;;;;;;4997412;28;20103;-74
2023/07/10 08:25:41;;;;;;;4.80;1.95;;;30.70;93.70;;;;;;5016100;28;20570;-73
2023/07/10 08:28:07;;;;;;;3.83;1.73;;;30.50;93.60;;;;;;5016664;28;20125;-74
2023/07/10 08:30:32;;;;;;;5.35;2.15;;;30.00;93.80;;;;;;5015827;28;20429;-73
2023/07/10 08:32:58;;;;;;;3.63;2.20;;;29.80;94.10;;;;;;4999031;28;20408;-74
2023/07/10 08:35:24;;;;;;;4.15;2.10;;;30.10;93.00;;;;;;5016292;28;20473;-73
2023/07/10 08:37:50;;;;;;;4.57;2.53;;;30.20;94.10;;;;;;5016252;28;20042;-73
2023/07/10 08:40:22;;;;;;;7.07;2.08;;;30.50;93.70;;;;;;5015071;28;20053;-74
2023/07/10 08:42:47;;;;;;;;;;;30.70;92.60;;;;;;5016758;28;20581;-73
2023/07/10 08:45:31;;;;;;;5.47;2.40;;;30.30;90.90;;;;;;4998773;28;19960;-75
2023/07/10 08:48:08;;;;;;;6.85;2.25;;;30.40;92.00;;;;;;5016227;28;20128;-73
2023/07/10 08:50:37;;;;;;;8.25;2.13;;;30.40;92.80;;;;;;5016080;28;20046;-75
2023/07/10 08:53:16;;;;;;;4.75;2.00;;;30.30;93.20;;;;;;4998571;28;20065;-73
2023/07/10 08:55:41;;;;;;;5.53;2.53;;;31.10;92.50;;;;;;5016386;28;20046;-73
2023/07/10 08:58:25;;;;;;;6.97;2.33;;;31.40;92.50;;;;;;5015827;28;20119;-70
2023/07/10 09:00:56;;;;;;;7.85;2.67;;;31.40;90.30;;;;;;5016004;28;20539;-72
2023/07/10 09:03:36;;;;;;;8.30;2.38;;;31.40;91.80;;;;;;4998633;28;20192;-74
2023/07/10 09:06:03;;;;;;;5.10;2.05;;;30.70;90.50;;;;;;4998653;28;20056;-73
2023/07/10 09:08:32;;;;;;;4.63;1.95;;;31.00;92.40;;;;;;5016042;28;20111;-71
2023/07/10 09:11:02;;;;;;;7.40;2.58;;;30.70;92.70;;;;;;4998390;28;20045;-72
2023/07/10 09:13:37;;;;;;;4.43;2.08;;;30.40;90.30;;;;;;5015991;28;20060;-74
2023/07/10 09:16:14;;;;;;;8.38;2.28;;;30.20;92.40;;;;;;5015530;28;20345;-72
2023/07/10 09:19:10;;;;;;;10.07;2.40;;;30.40;90.60;;;;;;5015716;28;20115;-71
2023/07/10 09:21:38;;;;;;;4.65;1.98;;;30.00;90.20;;;;;;5012933;28;20053;-71
2023/07/10 09:24:05;;;;;;;5.25;2.78;;;29.60;91.90;;;;;;5015669;28;20050;-72
2023/07/10 09:26:38;;;;;;;6.80;2.22;;;29.70;92.50;;;;;;5015296;28;20570;-70
2023/07/10 09:29:10;;;;;;;3.63;2.45;;;30.20;92.70;;;;;;5015426;28;20049;-72
2023/07/10 09:31:38;;;;;;;6.10;2.65;;;30.50;91.10;;;;;;4998142;28;20053;-68
2023/07/10 09:34:04;;;;;;;5.22;1.92;;;30.50;92.10;;;;;;5014616;28;20053;-68
2023/07/10 09:36:30;;;;;;;5.07;2.13;;;30.60;92.30;;;;;;5015735;28;20037;-68
2023/07/10 09:39:03;;;;;;;8.63;2.38;;;30.10;91.70;;;;;;4997784;28;20493;-73
2023/07/10 09:41:30;;;;;;;6.85;2.45;;;29.80;91.10;;;;;;5015164;28;20060;-72
2023/07/10 09:44:17;;;;;;;5.63;1.85;;;29.40;91.50;;;;;;5015122;28;20129;-72
2023/07/10 09:46:43;;;;;;;5.38;2.13;;;29.10;91.50;;;;;;5015034;28;20053;-72
2023/07/10 09:49:19;;;;;;;8.70;2.72;;;29.30;91.90;;;;;;5015495;28;20428;-72
2023/07/10 09:51:57;;;;;;;6.13;2.70;;;29.00;91.50;;;;;;4997335;28;20052;-71
2023/07/10 09:54:23;;;;;;;5.00;2.13;;;29.00;91.70;;;;;;5014442;28;20450;-72
2023/07/10 09:56:51;;;;;;;5.13;1.90;;;29.10;92.00;;;;;;5014883;28;20042;-72
2023/07/10 09:59:18;;;;;;;4.25;1.83;;;29.70;92.40;;;;;;5014860;28;20081;-72
2023/07/10 10:01:47;;;;;;;4.90;2.25;;;29.60;92.80;;;;;;5014840;28;20132;-71
2023/07/10 10:04:17;;;;;;;4.47;2.20;;;29.40;92.30;;;;;;5014144;28;20058;-72
2023/07/10 10:06:43;;;;;;;3.95;2.10;;;29.30;91.90;;;;;;5014659;28;20084;-70
2023/07/10 10:09:25;;;;;;;7.30;2.58;;;28.90;92.40;;;;;;5014882;28;20128;-69
2023/07/10 10:11:55;;;;;;;6.13;2.67;;;28.40;91.60;;;;;;5014694;28;20471;-69
2023/07/10 10:14:35;;;;;;;4.70;2.50;;;28.10;92.90;;;;;;4996883;28;20053;-71
2023/07/10 10:17:06;;;;;;;4.65;2.15;;;27.80;92.50;;;;;;5014317;28;20042;-70
2023/07/10 10:19:37;;;;;;;4.82;2.60;;;27.70;93.00;;;;;;5014296;28;20538;-71
2023/07/10 10:22:14;;;;;;;7.53;2.33;;;28.00;93.40;;;;;;4997576;28;20046;-70
2023/07/10 10:24:40;;;;;;;6.22;2.70;;;28.20;93.20;;;;;;5014270;28;20049;-71
2023/07/10 10:27:18;;;;;;;4.55;2.10;;;28.10;93.50;;;;;;5013937;28;20481;-70
2023/07/10 10:30:05;;;;;;;5.18;2.22;;;28.40;93.60;;;;;;5014154;28;20080;-71
2023/07/10 10:32:45;;;;;;;3.45;2.30;;;28.70;93.70;;;;;;5014280;28;20046;-71
2023/07/10 10:35:22;;;;;;;7.57;2.85;;;28.20;91.80;;;;;;5014087;28;20060;-71
2023/07/10 10:38:16;;;;;;;8.02;2.80;;;28.60;93.90;;;;;;5014061;28;20077;-71
2023/07/10 10:40:51;;;;;;;7.40;2.30;;;29.00;92.20;;;;;;5014070;28;20092;-71
2023/07/10 10:43:32;;;;;;;5.68;2.50;;;29.20;92.70;;;;;;5014600;28;20084;-71
2023/07/10 10:46:11;;;;;;;6.88;2.50;;;29.20;91.70;;;;;;5013066;28;20045;-71
2023/07/10 10:49:21;;;;;;;6.15;2.78;;;28.70;91.50;;;;;;5014229;28;20050;-72
2023/07/10 10:52:07;;;;;;;5.97;2.60;;;28.30;93.00;;;;;;5013664;28;20046;-74
2023/07/10 10:55:10;;;;;;;4.25;2.00;;;28.30;93.20;;;;;;5013295;28;20050;-70
2023/07/10 10:57:56;;;;;;;4.18;2.28;;;28.20;91.50;;;;;;5013765;28;20050;-71
2023/07/10 11:00:34;;;;;;;6.47;2.22;;;28.20;92.30;;;;;;4980393;28;20125;-70
2023/07/10 11:03:08;;;;;;;4.85;2.05;;;28.10;93.40;;;;;;5014086;28;20120;-71
2023/07/10 11:05:36;;;;;;;5.43;2.92;;;28.00;92.20;;;;;;4996441;28;20526;-72
2023/07/10 11:08:11;;;;;;;9.00;2.95;;;28.20;93.60;;;;;;4996441;28;20060;-72
2023/07/10 11:10:40;;;;;;;3.15;2.42;;;28.00;92.80;;;;;;5015738;28;20414;-74
2023/07/10 11:13:26;;;;;;;6.13;2.60;;;28.10;93.10;;;;;;5015406;28;20050;-71
2023/07/10 11:15:51;;;;;;;5.30;2.65;;;28.30;93.30;;;;;;5014531;28;20106;-71
2023/07/10 11:18:18;;;;;;;10.07;2.72;;;28.40;92.50;;;;;;4996616;28;20119;-73
2023/07/10 11:20:44;;;;;;;5.63;2.10;;;28.30;92.70;;;;;;4995880;28;20053;-73
2023/07/10 11:23:33;;;;;;;8.10;2.53;;;28.30;92.30;;;;;;5013402;28;20050;-73
2023/07/10 11:26:07;;;;;;;8.40;2.70;;;28.30;93.90;;;;;;5013506;28;20046;-71
2023/07/10 11:28:34;;;;;;;3.55;2.63;;;28.00;92.10;;;;;;5013376;28;20111;-72
2023/07/10 11:31:38;;;;;;;6.70;3.33;;;28.00;92.10;;;;;;5013122;28;20092;-71
2023/07/10 11:34:06;;;;;;;2.63;2.00;;;28.00;92.30;;;;;;5013372;28;20065;-71
2023/07/10 11:36:39;;;;;;;5.57;2.65;;;28.00;92.70;;;;;;4995679;28;20053;-71
2023/07/10 11:39:11;;;;;;;5.65;2.40;;;27.80;92.30;;;;;;5012912;28;20038;-71
2023/07/10 11:41:42;;;;;;;4.43;2.03;;;27.40;91.70;;;;;;5012988;28;20053;-73
2023/07/10 11:44:31;;;;;;;5.00;2.05;;;27.30;91.90;;;;;;5013034;28;20046;-70
2023/07/10 11:47:00;;;;;;;5.80;2.40;;;26.80;90.60;;;;;;5012729;28;20042;-70
2023/07/10 11:49:52;;;;;;;3.55;2.03;;;26.80;91.80;;;;;;5013155;28;20050;-70
2023/07/10 11:52:17;;;;;;;7.32;2.42;;;26.60;91.20;;;;;;5012957;28;20056;-72
2023/07/10 11:54:49;;;;;;;3.63;2.17;;;26.60;92.10;;;;;;4995534;28;20046;-71
2023/07/10 11:57:23;;;;;;;5.53;2.58;;;26.70;92.40;;;;;;5012570;28;20100;-70
2023/07/10 11:59:53;;;;;;;4.13;2.35;;;26.60;92.10;;;;;;5013052;28;20202;-70
2023/07/10 12:02:43;;;;;;;5.70;2.28;;;26.90;92.70;;;;;;5012611;28;20062;-72
2023/07/10 12:05:23;;;;;;;4.72;1.92;;;27.10;93.30;;;;;;4995442;28;20062;-70
2023/07/10 12:08:01;;;;;;;4.72;2.45;;;26.80;91.40;;;;;;5012446;28;20046;-70
2023/07/10 12:10:29;;;;;;;5.43;2.05;;;26.80;91.50;;;;;;4995507;28;20073;-72
2023/07/10 12:12:57;;;;;;;3.70;1.77;;;26.70;91.80;;;;;;4995357;28;20049;-69
2023/07/10 12:15:23;;;;;;;4.75;1.67;;;26.50;91.10;;;;;;5012340;28;20054;-71
2023/07/10 12:17:51;;;;;;;3.75;1.77;;;26.20;89.40;;;;;;5012870;28;20092;-70
2023/07/10 12:20:30;;;;;;;3.42;2.20;;;26.10;91.30;;;;;;5012479;28;20484;-70
2023/07/10 12:23:03;;;;;;;4.53;2.42;;;26.30;92.00;;;;;;4994906;28;20049;-70
2023/07/10 12:25:29;;;;;;;4.07;1.65;;;26.50;91.20;;;;;;4995277;28;20093;-73
2023/07/10 12:28:00;;;;;;;5.82;1.75;;;26.80;91.10;;;;;;5012401;28;20197;-71
2023/07/10 12:30:27;;;;;;;4.57;2.10;;;26.80;90.50;;;;;;5012291;28;20045;-71
2023/07/10 12:32:56;;;;;;;5.93;2.40;;;26.80;90.90;;;;;;5012317;28;20102;-70
2023/07/10 12:35:39;;;;;;;4.13;2.40;;;26.90;91.60;;;;;;5012826;28;20053;-70
2023/07/10 12:38:08;;;;;;;5.97;2.40;;;27.20;90.70;;;;;;5012252;28;20057;-71
2023/07/10 12:40:34;;;;;;;5.93;2.72;;;27.20;91.30;;;;;;5012686;28;20104;-72
2023/07/10 12:43:22;;;;;;;4.50;2.28;;;26.80;91.20;;;;;;5012659;28;20053;-71
2023/07/10 12:45:59;;;;;;;2.80;2.30;;;26.60;91.60;;;;;;5011321;28;20045;-70
2023/07/10 12:48:30;;;;;;;4.00;2.20;;;26.40;92.10;;;;;;5012797;28;20042;-71
2023/07/10 12:51:00;;;;;;;2.72;1.83;;;26.40;90.60;;;;;;5012419;28;20053;-71
2023/07/10 12:53:32;;;;;;;5.85;2.28;;;26.50;90.70;;;;;;5012168;28;20050;-71
2023/07/10 12:56:28;;;;;;;7.17;2.43;;;26.60;90.90;;;;;;4994633;28;20411;-73